sensor_id;sensor_type;location;lat;lon;timestamp;temperature;humidity
15231;DHT22;32569;51.762;8.564;2022-07-21T00:02:13;19.30;99.90
15231;DHT22;32569;51.762;8.564;2022-07-21T00:04:40;19.30;99.90
15231;DHT22;32569;51.762;8.564;2022-07-21T00:07:06;19.20;99.90
15231;DHT22;32569;51.762;8.564;2022-07-21T00:09:33;19.10;99.90
15231;DHT22;32569;51.762;8.564;2022-07-21T00:12:00;19.20;99.90
15231;DHT22;32569;51.762;8.564;2022-07-21T00:14:27;19.20;99.90
15231;DHT22;32569;51.762;8.564;2022-07-21T00:16:55;19.30;99.90
15231;DHT22;32569;51.762;8.564;2022-07-21T00:19:22;19.40;99.90
15231;DHT22;32569;51.762;8.564;2022-07-21T00:21:48;19.50;99.90
15231;DHT22;32569;51.762;8.564;2022-07-21T00:24:15;19.50;99.90
15231;DHT22;32569;51.762;8.564;2022-07-21T00:26:41;19.50;99.90
15231;DHT22;32569;51.762;8.564;2022-07-21T00:29:08;19.50;99.90
15231;DHT22;32569;51.762;8.564;2022-07-21T00:31:35;19.70;99.90
15231;DHT22;32569;51.762;8.564;2022-07-21T00:34:03;19.60;99.90
15231;DHT22;32569;51.762;8.564;2022-07-21T00:36:30;19.50;99.90
15231;DHT22;32569;51.762;8.564;2022-07-21T00:38:56;19.50;99.90
15231;DHT22;32569;51.762;8.564;2022-07-21T00:41:23;19.50;99.90
15231;DHT22;32569;51.762;8.564;2022-07-21T00:43:49;19.40;99.90
15231;DHT22;32569;51.762;8.564;2022-07-21T00:46:19;19.40;99.90
15231;DHT22;32569;51.762;8.564;2022-07-21T00:48:46;19.50;99.90
15231;DHT22;32569;51.762;8.564;2022-07-21T00:51:14;19.50;99.90
15231;DHT22;32569;51.762;8.564;2022-07-21T00:53:40;19.40;99.90
15231;DHT22;32569;51.762;8.564;2022-07-21T00:56:07;19.40;99.90
15231;DHT22;32569;51.762;8.564;2022-07-21T00:58:34;19.40;99.90
15231;DHT22;32569;51.762;8.564;2022-07-21T01:01:01;19.40;99.90
15231;DHT22;32569;51.762;8.564;2022-07-21T01:03:27;19.50;99.90
15231;DHT22;32569;51.762;8.564;2022-07-21T01:05:54;19.60;99.90
15231;DHT22;32569;51.762;8.564;2022-07-21T01:08:22;19.80;99.90
15231;DHT22;32569;51.762;8.564;2022-07-21T01:10:49;19.90;99.90
15231;DHT22;32569;51.762;8.564;2022-07-21T01:13:15;20.00;99.90
15231;DHT22;32569;51.762;8.564;2022-07-21T01:15:43;20.10;99.90
15231;DHT22;32569;51.762;8.564;2022-07-21T01:18:09;20.20;99.90
15231;DHT22;32569;51.762;8.564;2022-07-21T01:20:38;20.30;99.90
15231;DHT22;32569;51.762;8.564;2022-07-21T01:23:09;20.30;99.90
15231;DHT22;32569;51.762;8.564;2022-07-21T01:25:36;20.30;99.90
15231;DHT22;32569;51.762;8.564;2022-07-21T01:28:03;20.30;99.90
15231;DHT22;32569;51.762;8.564;2022-07-21T01:30:30;20.40;99.90
15231;DHT22;32569;51.762;8.564;2022-07-21T01:32:56;20.30;99.90
15231;DHT22;32569;51.762;8.564;2022-07-21T01:35:23;20.20;99.90
15231;DHT22;32569;51.762;8.564;2022-07-21T01:37:49;20.10;99.90
15231;DHT22;32569;51.762;8.564;2022-07-21T01:40:18;19.90;99.90
15231;DHT22;32569;51.762;8.564;2022-07-21T01:43:03;19.60;99.90
15231;DHT22;32569;51.762;8.564;2022-07-21T01:45:30;19.40;99.90
15231;DHT22;32569;51.762;8.564;2022-07-21T01:47:57;19.40;99.90
15231;DHT22;32569;51.762;8.564;2022-07-21T01:50:24;19.60;99.90
15231;DHT22;32569;51.762;8.564;2022-07-21T01:52:53;19.60;99.90
15231;DHT22;32569;51.762;8.564;2022-07-21T01:55:22;19.60;99.90
15231;DHT22;32569;51.762;8.564;2022-07-21T01:57:49;19.60;99.90
15231;DHT22;32569;51.762;8.564;2022-07-21T02:00:16;19.60;99.90
15231;DHT22;32569;51.762;8.564;2022-07-21T02:02:43;19.50;99.90
15231;DHT22;32569;51.762;8.564;2022-07-21T02:05:09;19.60;99.90
15231;DHT22;32569;51.762;8.564;2022-07-21T02:07:36;19.70;99.90
15231;DHT22;32569;51.762;8.564;2022-07-21T02:10:04;19.90;99.90
15231;DHT22;32569;51.762;8.564;2022-07-21T02:12:32;20.00;99.90
15231;DHT22;32569;51.762;8.564;2022-07-21T02:14:59;20.10;99.90
15231;DHT22;32569;51.762;8.564;2022-07-21T02:17:25;20.20;99.90
15231;DHT22;32569;51.762;8.564;2022-07-21T02:19:52;20.30;99.90
15231;DHT22;32569;51.762;8.564;2022-07-21T02:22:18;20.40;99.90
15231;DHT22;32569;51.762;8.564;2022-07-21T02:24:45;20.40;99.90
15231;DHT22;32569;51.762;8.564;2022-07-21T02:27:11;20.40;99.90
15231;DHT22;32569;51.762;8.564;2022-07-21T02:29:39;20.50;99.90
15231;DHT22;32569;51.762;8.564;2022-07-21T02:32:06;20.50;99.90
15231;DHT22;32569;51.762;8.564;2022-07-21T02:34:33;20.40;99.90
15231;DHT22;32569;51.762;8.564;2022-07-21T02:36:59;20.50;99.90
15231;DHT22;32569;51.762;8.564;2022-07-21T02:39:26;20.40;99.90
15231;DHT22;32569;51.762;8.564;2022-07-21T02:41:53;20.40;99.90
15231;DHT22;32569;51.762;8.564;2022-07-21T02:44:19;20.40;99.90
15231;DHT22;32569;51.762;8.564;2022-07-21T02:46:47;20.20;99.90
15231;DHT22;32569;51.762;8.564;2022-07-21T02:49:14;20.20;99.90
15231;DHT22;32569;51.762;8.564;2022-07-21T02:51:41;20.00;99.90
15231;DHT22;32569;51.762;8.564;2022-07-21T02:54:07;20.00;99.90
15231;DHT22;32569;51.762;8.564;2022-07-21T02:56:34;20.00;99.90
15231;DHT22;32569;51.762;8.564;2022-07-21T02:59:00;20.00;99.90
15231;DHT22;32569;51.762;8.564;2022-07-21T03:01:27;20.00;99.90
15231;DHT22;32569;51.762;8.564;2022-07-21T03:03:55;20.00;99.90
15231;DHT22;32569;51.762;8.564;2022-07-21T03:06:22;20.00;99.90
15231;DHT22;32569;51.762;8.564;2022-07-21T03:08:48;20.00;99.90
15231;DHT22;32569;51.762;8.564;2022-07-21T03:11:15;20.00;99.90
15231;DHT22;32569;51.762;8.564;2022-07-21T03:13:41;19.90;99.90
15231;DHT22;32569;51.762;8.564;2022-07-21T03:16:08;19.90;99.90
15231;DHT22;32569;51.762;8.564;2022-07-21T03:18:35;19.80;99.90
15231;DHT22;32569;51.762;8.564;2022-07-21T03:21:03;19.90;99.90
15231;DHT22;32569;51.762;8.564;2022-07-21T03:23:30;19.90;99.90
15231;DHT22;32569;51.762;8.564;2022-07-21T03:25:56;19.90;99.90
15231;DHT22;32569;51.762;8.564;2022-07-21T03:28:23;19.70;99.90
15231;DHT22;32569;51.762;8.564;2022-07-21T03:30:50;19.60;99.90
15231;DHT22;32569;51.762;8.564;2022-07-21T03:33:16;19.60;99.90
15231;DHT22;32569;51.762;8.564;2022-07-21T03:35:43;19.60;99.90
15231;DHT22;32569;51.762;8.564;2022-07-21T03:38:11;19.50;99.90
15231;DHT22;32569;51.762;8.564;2022-07-21T03:40:38;19.40;99.90
15231;DHT22;32569;51.762;8.564;2022-07-21T03:43:06;19.30;99.90
15231;DHT22;32569;51.762;8.564;2022-07-21T03:45:34;19.30;99.90
15231;DHT22;32569;51.762;8.564;2022-07-21T03:48:03;19.20;99.90
15231;DHT22;32569;51.762;8.564;2022-07-21T03:50:30;19.20;99.90
15231;DHT22;32569;51.762;8.564;2022-07-21T03:52:58;19.10;99.90
15231;DHT22;32569;51.762;8.564;2022-07-21T03:55:26;18.90;99.90
15231;DHT22;32569;51.762;8.564;2022-07-21T03:57:55;18.90;99.90
15231;DHT22;32569;51.762;8.564;2022-07-21T04:00:24;18.80;99.90
15231;DHT22;32569;51.762;8.564;2022-07-21T04:02:52;18.80;99.90
15231;DHT22;32569;51.762;8.564;2022-07-21T04:05:19;18.70;99.90
15231;DHT22;32569;51.762;8.564;2022-07-21T04:07:48;18.60;99.90
15231;DHT22;32569;51.762;8.564;2022-07-21T04:10:19;18.60;99.90
15231;DHT22;32569;51.762;8.564;2022-07-21T04:12:47;18.70;99.90
15231;DHT22;32569;51.762;8.564;2022-07-21T04:15:14;18.70;99.90
15231;DHT22;32569;51.762;8.564;2022-07-21T04:17:41;18.80;99.90
15231;DHT22;32569;51.762;8.564;2022-07-21T04:20:09;18.80;99.90
15231;DHT22;32569;51.762;8.564;2022-07-21T04:22:37;18.80;99.90
15231;DHT22;32569;51.762;8.564;2022-07-21T04:25:05;18.90;99.90
15231;DHT22;32569;51.762;8.564;2022-07-21T04:27:32;18.90;99.90
15231;DHT22;32569;51.762;8.564;2022-07-21T04:30:00;18.90;99.90
15231;DHT22;32569;51.762;8.564;2022-07-21T04:32:27;18.90;99.90
15231;DHT22;32569;51.762;8.564;2022-07-21T04:34:54;19.00;99.90
15231;DHT22;32569;51.762;8.564;2022-07-21T04:37:21;19.00;99.90
15231;DHT22;32569;51.762;8.564;2022-07-21T04:39:48;19.10;99.90
15231;DHT22;32569;51.762;8.564;2022-07-21T04:42:15;19.10;99.90
15231;DHT22;32569;51.762;8.564;2022-07-21T04:44:41;19.10;99.90
15231;DHT22;32569;51.762;8.564;2022-07-21T04:47:09;19.20;99.90
15231;DHT22;32569;51.762;8.564;2022-07-21T04:49:36;19.30;99.90
15231;DHT22;32569;51.762;8.564;2022-07-21T04:52:03;19.40;99.90
15231;DHT22;32569;51.762;8.564;2022-07-21T04:54:30;19.50;99.90
15231;DHT22;32569;51.762;8.564;2022-07-21T04:56:56;19.40;99.90
15231;DHT22;32569;51.762;8.564;2022-07-21T04:59:24;19.50;99.90
15231;DHT22;32569;51.762;8.564;2022-07-21T05:01:51;19.40;99.90
15231;DHT22;32569;51.762;8.564;2022-07-21T05:04:19;19.40;99.90
15231;DHT22;32569;51.762;8.564;2022-07-21T05:06:45;19.30;99.90
15231;DHT22;32569;51.762;8.564;2022-07-21T05:09:12;19.80;99.90
15231;DHT22;32569;51.762;8.564;2022-07-21T05:11:39;20.50;99.90
15231;DHT22;32569;51.762;8.564;2022-07-21T05:14:06;21.40;99.90
15231;DHT22;32569;51.762;8.564;2022-07-21T05:16:32;22.00;99.90
15231;DHT22;32569;51.762;8.564;2022-07-21T05:18:59;22.60;99.90
15231;DHT22;32569;51.762;8.564;2022-07-21T05:21:27;23.00;99.90
15231;DHT22;32569;51.762;8.564;2022-07-21T05:23:53;23.20;99.90
15231;DHT22;32569;51.762;8.564;2022-07-21T05:26:20;23.50;99.90
15231;DHT22;32569;51.762;8.564;2022-07-21T05:28:47;23.50;99.90
15231;DHT22;32569;51.762;8.564;2022-07-21T05:31:13;23.70;99.90
15231;DHT22;32569;51.762;8.564;2022-07-21T05:33:40;23.60;99.90
15231;DHT22;32569;51.762;8.564;2022-07-21T05:36:07;24.00;99.90
15231;DHT22;32569;51.762;8.564;2022-07-21T05:38:35;24.30;99.90
15231;DHT22;32569;51.762;8.564;2022-07-21T05:41:02;24.10;99.90
15231;DHT22;32569;51.762;8.564;2022-07-21T05:43:29;24.30;99.90
15231;DHT22;32569;51.762;8.564;2022-07-21T05:45:56;24.10;99.90
15231;DHT22;32569;51.762;8.564;2022-07-21T05:48:23;24.10;99.90
15231;DHT22;32569;51.762;8.564;2022-07-21T05:50:50;23.60;99.90
15231;DHT22;32569;51.762;8.564;2022-07-21T05:53:16;22.90;99.90
15231;DHT22;32569;51.762;8.564;2022-07-21T05:55:44;22.40;99.90
15231;DHT22;32569;51.762;8.564;2022-07-21T05:58:11;22.00;99.90
15231;DHT22;32569;51.762;8.564;2022-07-21T06:00:38;22.00;99.90
15231;DHT22;32569;51.762;8.564;2022-07-21T06:03:05;22.30;99.90
15231;DHT22;32569;51.762;8.564;2022-07-21T06:05:32;22.50;99.90
15231;DHT22;32569;51.762;8.564;2022-07-21T06:07:58;22.50;99.90
15231;DHT22;32569;51.762;8.564;2022-07-21T06:10:26;22.60;99.90
15231;DHT22;32569;51.762;8.564;2022-07-21T06:12:54;22.60;99.90
15231;DHT22;32569;51.762;8.564;2022-07-21T06:15:21;21.90;99.90
15231;DHT22;32569;51.762;8.564;2022-07-21T06:17:47;21.80;99.90
15231;DHT22;32569;51.762;8.564;2022-07-21T06:20:14;22.00;99.90
15231;DHT22;32569;51.762;8.564;2022-07-21T06:22:41;22.10;99.90
15231;DHT22;32569;51.762;8.564;2022-07-21T06:25:08;21.90;99.90
15231;DHT22;32569;51.762;8.564;2022-07-21T06:27:35;21.80;99.90
15231;DHT22;32569;51.762;8.564;2022-07-21T06:30:04;21.70;99.90
15231;DHT22;32569;51.762;8.564;2022-07-21T06:32:31;21.50;99.90
15231;DHT22;32569;51.762;8.564;2022-07-21T06:34:58;21.30;99.90
15231;DHT22;32569;51.762;8.564;2022-07-21T06:37:24;21.30;99.90
15231;DHT22;32569;51.762;8.564;2022-07-21T06:39:51;21.20;99.90
15231;DHT22;32569;51.762;8.564;2022-07-21T06:42:18;21.30;99.90
15231;DHT22;32569;51.762;8.564;2022-07-21T06:44:44;21.20;99.90
15231;DHT22;32569;51.762;8.564;2022-07-21T06:47:12;21.10;99.90
15231;DHT22;32569;51.762;8.564;2022-07-21T06:49:39;20.90;99.90
15231;DHT22;32569;51.762;8.564;2022-07-21T06:52:06;20.70;99.90
15231;DHT22;32569;51.762;8.564;2022-07-21T06:54:33;20.70;99.90
15231;DHT22;32569;51.762;8.564;2022-07-21T06:56:59;20.60;99.90
15231;DHT22;32569;51.762;8.564;2022-07-21T06:59:26;20.70;99.90
15231;DHT22;32569;51.762;8.564;2022-07-21T07:01:52;20.60;99.90
15231;DHT22;32569;51.762;8.564;2022-07-21T07:04:20;20.60;99.90
15231;DHT22;32569;51.762;8.564;2022-07-21T07:06:47;20.60;99.90
15231;DHT22;32569;51.762;8.564;2022-07-21T07:09:17;20.50;99.90
15231;DHT22;32569;51.762;8.564;2022-07-21T07:11:44;20.40;99.90
15231;DHT22;32569;51.762;8.564;2022-07-21T07:14:12;20.50;99.90
15231;DHT22;32569;51.762;8.564;2022-07-21T07:16:38;20.50;99.90
15231;DHT22;32569;51.762;8.564;2022-07-21T07:19:05;20.50;99.90
15231;DHT22;32569;51.762;8.564;2022-07-21T07:21:33;20.50;99.90
15231;DHT22;32569;51.762;8.564;2022-07-21T07:24:00;20.50;99.90
15231;DHT22;32569;51.762;8.564;2022-07-21T07:26:27;20.50;99.90
15231;DHT22;32569;51.762;8.564;2022-07-21T07:28:54;20.40;99.90
15231;DHT22;32569;51.762;8.564;2022-07-21T07:31:20;20.40;99.90
15231;DHT22;32569;51.762;8.564;2022-07-21T07:33:47;20.40;99.90
15231;DHT22;32569;51.762;8.564;2022-07-21T07:36:13;20.40;99.90
15231;DHT22;32569;51.762;8.564;2022-07-21T07:38:42;20.50;99.90
15231;DHT22;32569;51.762;8.564;2022-07-21T07:41:08;20.60;99.90
15231;DHT22;32569;51.762;8.564;2022-07-21T07:43:35;20.70;99.90
15231;DHT22;32569;51.762;8.564;2022-07-21T07:46:02;20.80;99.90
15231;DHT22;32569;51.762;8.564;2022-07-21T07:48:30;21.00;99.90
15231;DHT22;32569;51.762;8.564;2022-07-21T07:50:57;21.30;99.90
15231;DHT22;32569;51.762;8.564;2022-07-21T07:53:24;21.50;99.90
15231;DHT22;32569;51.762;8.564;2022-07-21T07:55:52;21.70;99.90
15231;DHT22;32569;51.762;8.564;2022-07-21T07:58:18;21.90;99.90
15231;DHT22;32569;51.762;8.564;2022-07-21T08:00:45;22.10;99.90
15231;DHT22;32569;51.762;8.564;2022-07-21T08:03:12;22.30;99.90
15231;DHT22;32569;51.762;8.564;2022-07-21T08:05:39;22.40;99.90
15231;DHT22;32569;51.762;8.564;2022-07-21T08:08:05;22.50;99.90
15231;DHT22;32569;51.762;8.564;2022-07-21T08:10:32;22.60;99.90
15231;DHT22;32569;51.762;8.564;2022-07-21T08:13:01;22.60;99.90
15231;DHT22;32569;51.762;8.564;2022-07-21T08:15:28;22.80;99.90
15231;DHT22;32569;51.762;8.564;2022-07-21T08:17:54;22.60;99.90
15231;DHT22;32569;51.762;8.564;2022-07-21T08:20:21;22.50;99.90
15231;DHT22;32569;51.762;8.564;2022-07-21T08:22:47;22.40;99.90
15231;DHT22;32569;51.762;8.564;2022-07-21T08:25:14;22.30;99.90
15231;DHT22;32569;51.762;8.564;2022-07-21T08:27:41;22.20;99.90
15231;DHT22;32569;51.762;8.564;2022-07-21T08:30:10;22.30;99.90
15231;DHT22;32569;51.762;8.564;2022-07-21T08:32:37;22.30;99.90
15231;DHT22;32569;51.762;8.564;2022-07-21T08:35:04;22.30;99.90
15231;DHT22;32569;51.762;8.564;2022-07-21T08:37:34;22.50;99.90
15231;DHT22;32569;51.762;8.564;2022-07-21T08:40:00;22.50;99.90
15231;DHT22;32569;51.762;8.564;2022-07-21T08:42:27;22.50;99.90
15231;DHT22;32569;51.762;8.564;2022-07-21T08:44:54;22.40;99.90
15231;DHT22;32569;51.762;8.564;2022-07-21T08:47:22;22.50;99.90
15231;DHT22;32569;51.762;8.564;2022-07-21T08:49:50;22.50;99.90
15231;DHT22;32569;51.762;8.564;2022-07-21T08:52:17;22.60;99.90
15231;DHT22;32569;51.762;8.564;2022-07-21T08:54:44;22.70;99.90
15231;DHT22;32569;51.762;8.564;2022-07-21T08:57:11;22.80;99.90
15231;DHT22;32569;51.762;8.564;2022-07-21T08:59:38;22.80;99.90
15231;DHT22;32569;51.762;8.564;2022-07-21T09:02:05;22.80;99.90
15231;DHT22;32569;51.762;8.564;2022-07-21T09:04:34;22.90;99.90
15231;DHT22;32569;51.762;8.564;2022-07-21T09:07:02;22.80;99.90
15231;DHT22;32569;51.762;8.564;2022-07-21T09:09:32;22.90;99.90
15231;DHT22;32569;51.762;8.564;2022-07-21T09:12:00;23.00;99.90
15231;DHT22;32569;51.762;8.564;2022-07-21T09:14:32;23.00;99.90
15231;DHT22;32569;51.762;8.564;2022-07-21T09:17:00;22.90;99.90
15231;DHT22;32569;51.762;8.564;2022-07-21T09:19:35;22.90;99.90
15231;DHT22;32569;51.762;8.564;2022-07-21T09:22:05;22.80;99.90
15231;DHT22;32569;51.762;8.564;2022-07-21T09:24:34;22.90;99.90
15231;DHT22;32569;51.762;8.564;2022-07-21T09:27:08;22.80;99.90
15231;DHT22;32569;51.762;8.564;2022-07-21T09:29:44;22.80;99.90
15231;DHT22;32569;51.762;8.564;2022-07-21T09:32:21;22.70;99.90
15231;DHT22;32569;51.762;8.564;2022-07-21T09:34:50;22.80;99.90
15231;DHT22;32569;51.762;8.564;2022-07-21T09:37:17;22.80;99.90
15231;DHT22;32569;51.762;8.564;2022-07-21T09:39:47;22.90;99.90
15231;DHT22;32569;51.762;8.564;2022-07-21T09:42:16;22.70;99.90
15231;DHT22;32569;51.762;8.564;2022-07-21T09:44:44;22.60;99.90
15231;DHT22;32569;51.762;8.564;2022-07-21T09:47:13;22.70;99.90
15231;DHT22;32569;51.762;8.564;2022-07-21T09:49:41;22.70;99.90
15231;DHT22;32569;51.762;8.564;2022-07-21T09:52:19;22.80;99.90
15231;DHT22;32569;51.762;8.564;2022-07-21T09:54:53;23.00;99.90
15231;DHT22;32569;51.762;8.564;2022-07-21T09:57:21;23.20;99.90
15231;DHT22;32569;51.762;8.564;2022-07-21T09:59:49;23.40;99.90
15231;DHT22;32569;51.762;8.564;2022-07-21T10:02:19;23.30;99.90
15231;DHT22;32569;51.762;8.564;2022-07-21T10:04:48;23.50;99.90
15231;DHT22;32569;51.762;8.564;2022-07-21T10:07:16;23.60;99.90
15231;DHT22;32569;51.762;8.564;2022-07-21T10:09:45;23.70;99.90
15231;DHT22;32569;51.762;8.564;2022-07-21T10:12:12;23.70;99.90
15231;DHT22;32569;51.762;8.564;2022-07-21T10:14:40;23.70;99.90
15231;DHT22;32569;51.762;8.564;2022-07-21T10:17:07;23.70;99.90
15231;DHT22;32569;51.762;8.564;2022-07-21T10:19:39;23.80;99.90
15231;DHT22;32569;51.762;8.564;2022-07-21T10:22:16;23.80;99.90
15231;DHT22;32569;51.762;8.564;2022-07-21T10:24:47;23.80;99.90
15231;DHT22;32569;51.762;8.564;2022-07-21T10:27:14;23.80;99.90
15231;DHT22;32569;51.762;8.564;2022-07-21T10:29:56;23.90;99.90
15231;DHT22;32569;51.762;8.564;2022-07-21T10:32:25;23.90;99.90
15231;DHT22;32569;51.762;8.564;2022-07-21T10:34:53;23.70;99.90
15231;DHT22;32569;51.762;8.564;2022-07-21T10:37:47;23.50;99.90
15231;DHT22;32569;51.762;8.564;2022-07-21T10:40:35;23.50;99.90
15231;DHT22;32569;51.762;8.564;2022-07-21T10:43:37;23.30;99.90
15231;DHT22;32569;51.762;8.564;2022-07-21T10:46:38;23.30;99.90
15231;DHT22;32569;51.762;8.564;2022-07-21T10:49:07;23.20;99.90
15231;DHT22;32569;51.762;8.564;2022-07-21T10:51:35;23.20;99.90
15231;DHT22;32569;51.762;8.564;2022-07-21T10:54:25;23.30;99.90
15231;DHT22;32569;51.762;8.564;2022-07-21T10:57:29;23.40;99.90
15231;DHT22;32569;51.762;8.564;2022-07-21T11:00:22;23.30;99.90
15231;DHT22;32569;51.762;8.564;2022-07-21T11:02:52;23.60;99.90
15231;DHT22;32569;51.762;8.564;2022-07-21T11:05:20;23.70;99.90
15231;DHT22;32569;51.762;8.564;2022-07-21T11:08:12;23.80;99.90
15231;DHT22;32569;51.762;8.564;2022-07-21T11:10:41;24.10;99.90
15231;DHT22;32569;51.762;8.564;2022-07-21T11:13:09;24.20;99.90
15231;DHT22;32569;51.762;8.564;2022-07-21T11:15:45;24.40;99.90
15231;DHT22;32569;51.762;8.564;2022-07-21T11:18:17;24.50;99.90
15231;DHT22;32569;51.762;8.564;2022-07-21T11:20:57;24.40;99.90
15231;DHT22;32569;51.762;8.564;2022-07-21T11:23:34;24.30;99.90
15231;DHT22;32569;51.762;8.564;2022-07-21T11:26:01;24.30;99.90
15231;DHT22;32569;51.762;8.564;2022-07-21T11:28:27;24.40;99.90
15231;DHT22;32569;51.762;8.564;2022-07-21T11:31:09;24.50;99.90
15231;DHT22;32569;51.762;8.564;2022-07-21T11:33:38;24.50;99.90
15231;DHT22;32569;51.762;8.564;2022-07-21T11:36:05;24.70;99.90
15231;DHT22;32569;51.762;8.564;2022-07-21T11:38:32;24.70;99.90
15231;DHT22;32569;51.762;8.564;2022-07-21T11:41:16;24.50;99.90
15231;DHT22;32569;51.762;8.564;2022-07-21T11:43:44;24.40;99.90
15231;DHT22;32569;51.762;8.564;2022-07-21T11:46:11;24.20;99.90
15231;DHT22;32569;51.762;8.564;2022-07-21T11:48:39;24.10;99.90
15231;DHT22;32569;51.762;8.564;2022-07-21T11:51:06;24.00;99.90
15231;DHT22;32569;51.762;8.564;2022-07-21T11:53:33;24.10;99.90
15231;DHT22;32569;51.762;8.564;2022-07-21T11:56:00;24.00;99.90
15231;DHT22;32569;51.762;8.564;2022-07-21T11:58:26;24.00;99.90
15231;DHT22;32569;51.762;8.564;2022-07-21T12:01:04;24.10;99.90
15231;DHT22;32569;51.762;8.564;2022-07-21T12:03:31;24.00;99.90
15231;DHT22;32569;51.762;8.564;2022-07-21T12:06:00;23.90;99.90
15231;DHT22;32569;51.762;8.564;2022-07-21T12:08:28;23.90;99.90
15231;DHT22;32569;51.762;8.564;2022-07-21T12:11:04;23.70;99.90
15231;DHT22;32569;51.762;8.564;2022-07-21T12:13:42;23.70;99.90
15231;DHT22;32569;51.762;8.564;2022-07-21T12:16:17;23.80;99.90
15231;DHT22;32569;51.762;8.564;2022-07-21T12:18:43;23.90;99.90
15231;DHT22;32569;51.762;8.564;2022-07-21T12:21:11;24.00;99.90
15231;DHT22;32569;51.762;8.564;2022-07-21T12:23:38;24.00;99.90
15231;DHT22;32569;51.762;8.564;2022-07-21T12:26:05;24.00;99.90
15231;DHT22;32569;51.762;8.564;2022-07-21T12:28:41;24.10;99.90
15231;DHT22;32569;51.762;8.564;2022-07-21T12:31:11;24.30;99.90
15231;DHT22;32569;51.762;8.564;2022-07-21T12:33:40;24.20;99.90
15231;DHT22;32569;51.762;8.564;2022-07-21T12:36:08;24.00;99.90
15231;DHT22;32569;51.762;8.564;2022-07-21T12:38:38;23.90;99.90
15231;DHT22;32569;51.762;8.564;2022-07-21T12:41:06;24.10;99.90
15231;DHT22;32569;51.762;8.564;2022-07-21T12:43:33;24.30;99.90
15231;DHT22;32569;51.762;8.564;2022-07-21T12:46:01;24.40;99.90
15231;DHT22;32569;51.762;8.564;2022-07-21T12:48:31;24.40;99.90
15231;DHT22;32569;51.762;8.564;2022-07-21T12:51:04;24.30;99.90
15231;DHT22;32569;51.762;8.564;2022-07-21T12:53:32;24.30;99.70
15231;DHT22;32569;51.762;8.564;2022-07-21T12:56:00;24.10;99.60
15231;DHT22;32569;51.762;8.564;2022-07-21T12:58:27;24.20;99.70
15231;DHT22;32569;51.762;8.564;2022-07-21T13:00:54;24.10;99.80
15231;DHT22;32569;51.762;8.564;2022-07-21T13:03:21;24.10;99.90
15231;DHT22;32569;51.762;8.564;2022-07-21T13:05:47;24.10;99.50
15231;DHT22;32569;51.762;8.564;2022-07-21T13:08:14;24.10;99.70
15231;DHT22;32569;51.762;8.564;2022-07-21T13:10:41;24.30;99.90
15231;DHT22;32569;51.762;8.564;2022-07-21T13:13:08;24.40;99.90
15231;DHT22;32569;51.762;8.564;2022-07-21T13:15:35;24.40;99.70
15231;DHT22;32569;51.762;8.564;2022-07-21T13:18:02;24.40;99.90
15231;DHT22;32569;51.762;8.564;2022-07-21T13:20:29;24.30;99.90
15231;DHT22;32569;51.762;8.564;2022-07-21T13:22:55;24.20;99.90
15231;DHT22;32569;51.762;8.564;2022-07-21T13:25:22;24.10;99.60
15231;DHT22;32569;51.762;8.564;2022-07-21T13:27:49;23.90;99.90
15231;DHT22;32569;51.762;8.564;2022-07-21T13:30:17;23.90;99.90
15231;DHT22;32569;51.762;8.564;2022-07-21T13:32:44;23.80;99.90
15231;DHT22;32569;51.762;8.564;2022-07-21T13:35:11;23.80;99.90
15231;DHT22;32569;51.762;8.564;2022-07-21T13:37:38;23.60;99.90
15231;DHT22;32569;51.762;8.564;2022-07-21T13:40:06;23.50;99.90
15231;DHT22;32569;51.762;8.564;2022-07-21T13:42:32;23.50;99.90
15231;DHT22;32569;51.762;8.564;2022-07-21T13:44:59;23.50;99.90
15231;DHT22;32569;51.762;8.564;2022-07-21T13:47:27;23.60;99.90
15231;DHT22;32569;51.762;8.564;2022-07-21T13:49:54;23.60;99.90
15231;DHT22;32569;51.762;8.564;2022-07-21T13:52:20;23.30;99.90
15231;DHT22;32569;51.762;8.564;2022-07-21T13:54:47;22.50;99.90
15231;DHT22;32569;51.762;8.564;2022-07-21T13:57:14;21.80;99.90
15231;DHT22;32569;51.762;8.564;2022-07-21T13:59:40;21.50;99.90
15231;DHT22;32569;51.762;8.564;2022-07-21T14:02:07;21.40;99.90
15231;DHT22;32569;51.762;8.564;2022-07-21T14:04:35;21.40;99.90
15231;DHT22;32569;51.762;8.564;2022-07-21T14:07:02;21.40;99.90
15231;DHT22;32569;51.762;8.564;2022-07-21T14:09:29;21.50;99.90
15231;DHT22;32569;51.762;8.564;2022-07-21T14:11:55;21.50;99.90
15231;DHT22;32569;51.762;8.564;2022-07-21T14:14:22;21.60;99.90
15231;DHT22;32569;51.762;8.564;2022-07-21T14:16:52;21.80;99.90
15231;DHT22;32569;51.762;8.564;2022-07-21T14:19:19;21.90;99.90
15231;DHT22;32569;51.762;8.564;2022-07-21T14:21:48;22.10;99.90
15231;DHT22;32569;51.762;8.564;2022-07-21T14:24:15;22.50;99.90
15231;DHT22;32569;51.762;8.564;2022-07-21T14:27:00;22.90;99.90
15231;DHT22;32569;51.762;8.564;2022-07-21T14:29:26;22.90;99.90
15231;DHT22;32569;51.762;8.564;2022-07-21T14:31:53;22.70;99.90
15231;DHT22;32569;51.762;8.564;2022-07-21T14:34:20;22.70;99.90
15231;DHT22;32569;51.762;8.564;2022-07-21T14:36:48;22.60;99.90
15231;DHT22;32569;51.762;8.564;2022-07-21T14:39:16;22.60;99.90
15231;DHT22;32569;51.762;8.564;2022-07-21T14:41:43;22.60;99.90
15231;DHT22;32569;51.762;8.564;2022-07-21T14:44:11;22.50;99.90
15231;DHT22;32569;51.762;8.564;2022-07-21T14:46:37;22.40;99.90
15231;DHT22;32569;51.762;8.564;2022-07-21T14:49:04;22.40;99.90
15231;DHT22;32569;51.762;8.564;2022-07-21T14:51:31;22.40;99.90
15231;DHT22;32569;51.762;8.564;2022-07-21T14:53:59;22.30;99.90
15231;DHT22;32569;51.762;8.564;2022-07-21T14:56:26;22.40;99.90
15231;DHT22;32569;51.762;8.564;2022-07-21T14:58:52;22.40;99.90
15231;DHT22;32569;51.762;8.564;2022-07-21T15:01:19;22.30;99.90
15231;DHT22;32569;51.762;8.564;2022-07-21T15:03:46;22.30;99.90
15231;DHT22;32569;51.762;8.564;2022-07-21T15:06:12;22.40;99.90
15231;DHT22;32569;51.762;8.564;2022-07-21T15:08:39;22.40;99.90
15231;DHT22;32569;51.762;8.564;2022-07-21T15:11:07;22.50;99.90
15231;DHT22;32569;51.762;8.564;2022-07-21T15:13:33;22.40;99.90
15231;DHT22;32569;51.762;8.564;2022-07-21T15:16:00;22.30;99.90
15231;DHT22;32569;51.762;8.564;2022-07-21T15:18:27;22.10;99.90
15231;DHT22;32569;51.762;8.564;2022-07-21T15:20:53;22.10;99.90
15231;DHT22;32569;51.762;8.564;2022-07-21T15:23:20;22.00;99.90
15231;DHT22;32569;51.762;8.564;2022-07-21T15:25:47;22.00;99.90
15231;DHT22;32569;51.762;8.564;2022-07-21T15:28:15;22.00;99.90
15231;DHT22;32569;51.762;8.564;2022-07-21T15:30:41;22.00;99.90
15231;DHT22;32569;51.762;8.564;2022-07-21T15:33:09;22.00;99.90
15231;DHT22;32569;51.762;8.564;2022-07-21T15:35:36;22.00;99.90
15231;DHT22;32569;51.762;8.564;2022-07-21T15:38:03;22.00;99.90